Time;durP1;ratioP1;P1;durP2;ratioP2;P2;SDS_P1;SDS_P2;PMS_P1;PMS_P2;Temp;Humidity;BMP_temperature;BMP_pressure;BME280_temperature;BME280_humidity;BME280_pressure;Samples;Min_cycle;Max_cycle;Signal;HPM_P1;HPM_P2
2023/05/08 00:00:16;;;;;;;;;;;20.00;91.90;;;;;;5094875;28;20298;-58
2023/05/08 00:02:41;;;;;;;;;;;20.00;91.90;;;;;;5094893;28;19912;-58
2023/05/08 00:05:07;;;;;;;;;;;20.00;91.80;;;;;;5094256;28;20007;-58
2023/05/08 00:07:32;;;;;;;;;;;20.00;91.90;;;;;;5095055;28;20263;-58
2023/05/08 00:09:57;;;;;;;;;;;20.00;91.90;;;;;;5094657;28;19909;-59
2023/05/08 00:12:23;;;;;;;;;;;20.00;91.90;;;;;;5094696;28;20008;-58
2023/05/08 00:14:48;;;;;;;;;;;20.00;91.90;;;;;;5093790;28;20342;-58
2023/05/08 00:17:14;;;;;;;;;;;20.00;91.90;;;;;;5094683;28;19989;-57
2023/05/08 00:19:39;;;;;;;;;;;20.00;91.80;;;;;;5094773;28;19958;-59
2023/05/08 00:22:05;;;;;;;;;;;19.90;91.80;;;;;;5094204;28;20294;-58
2023/05/08 00:24:30;;;;;;;;;;;20.00;91.80;;;;;;5093927;28;19951;-58
2023/05/08 00:26:56;;;;;;;;;;;20.00;91.80;;;;;;5094682;28;19923;-58
2023/05/08 00:29:21;;;;;;;;;;;20.00;91.90;;;;;;5094308;28;20255;-58
2023/05/08 00:31:47;;;;;;;;;;;20.00;91.80;;;;;;5093858;28;19927;-58
2023/05/08 00:34:12;;;;;;;;;;;20.00;91.80;;;;;;5094578;28;20003;-58
2023/05/08 00:36:38;;;;;;;;;;;20.00;91.80;;;;;;5094630;28;19919;-59
2023/05/08 00:39:03;;;;;;;;;;;20.00;91.80;;;;;;5094913;28;19947;-58
2023/05/08 00:41:29;;;;;;;;;;;20.00;91.80;;;;;;5094287;28;19908;-58
2023/05/08 00:43:54;;;;;;;;;;;20.00;91.90;;;;;;5093497;28;20021;-58
2023/05/08 00:46:20;;;;;;;;;;;20.00;91.80;;;;;;5094791;28;19916;-58
2023/05/08 00:48:45;;;;;;;;;;;20.00;91.90;;;;;;5094068;28;19958;-58
2023/05/08 00:51:11;;;;;;;;;;;20.00;91.80;;;;;;5094394;28;19909;-59
2023/05/08 00:53:38;;;;;;;;;;;19.90;91.80;;;;;;5092906;28;19913;-58
2023/05/08 00:56:04;;;;;;;;;;;20.00;91.90;;;;;;5093739;28;19912;-58
2023/05/08 00:58:31;;;;;;;;;;;20.00;91.90;;;;;;5094299;28;20015;-58
2023/05/08 01:00:57;;;;;;;;;;;20.00;91.90;;;;;;5076177;28;20335;-58
2023/05/08 01:03:22;;;;;;;;;;;20.00;91.90;;;;;;5093220;28;19958;-58
2023/05/08 01:05:48;;;;;;;;;;;20.00;91.90;;;;;;5094209;28;19968;-58
2023/05/08 01:08:13;;;;;;;;;;;19.90;91.90;;;;;;5093921;28;19908;-58
2023/05/08 01:10:58;;;;;;;;;;;20.00;91.90;;;;;;5094228;28;19916;-58
2023/05/08 01:13:29;;;;;;;;;;;20.00;91.90;;;;;;5093835;28;19936;-57
2023/05/08 01:16:07;;;;;;;;;;;20.00;91.90;;;;;;5092875;28;19912;-58
2023/05/08 01:18:37;;;;;;;;;;;20.00;91.90;;;;;;5092144;28;19912;-57
2023/05/08 01:21:09;;;;;;;;;;;20.00;91.90;;;;;;5094096;28;19908;-58
2023/05/08 01:23:40;;;;;;;;;;;19.90;91.90;;;;;;5094060;28;19908;-58
2023/05/08 01:26:06;;;;;;;;;;;20.00;91.90;;;;;;5093298;28;19954;-58
2023/05/08 01:28:31;;;;;;;;;;;20.00;91.90;;;;;;5094002;28;20297;-58
2023/05/08 01:30:57;;;;;;;;;;;20.00;92.00;;;;;;5094012;28;20278;-58
2023/05/08 01:33:24;;;;;;;;;;;20.00;91.90;;;;;;5096246;28;20027;-58
2023/05/08 01:35:52;;;;;;;;;;;19.90;91.90;;;;;;5097700;28;19951;-57
2023/05/08 01:38:20;;;;;;;;;;;20.00;91.80;;;;;;5096135;28;19912;-57
2023/05/08 01:40:51;;;;;;;;;;;20.00;91.90;;;;;;5097682;28;19961;-56
2023/05/08 01:43:17;;;;;;;;;;;20.00;91.90;;;;;;5098317;28;19920;-57
2023/05/08 01:45:44;;;;;;;;;;;20.00;91.90;;;;;;5097495;28;19919;-58
2023/05/08 01:48:12;;;;;;;;;;;20.00;91.90;;;;;;5096739;28;19920;-58
2023/05/08 01:50:44;;;;;;;;;;;20.00;91.90;;;;;;5097732;28;19930;-58
2023/05/08 01:53:16;;;;;;;;;;;20.00;91.90;;;;;;5097766;28;19916;-58
2023/05/08 01:55:42;;;;;;;;;;;19.90;91.90;;;;;;5097416;28;19963;-58
2023/05/08 01:58:10;;;;;;;;;;;20.00;91.90;;;;;;5097016;28;19919;-58
2023/05/08 02:00:38;;;;;;;;;;;20.00;91.90;;;;;;5079041;28;19920;-58
2023/05/08 02:03:05;;;;;;;;;;;20.00;91.90;;;;;;5097499;28;19912;-58
2023/05/08 02:05:31;;;;;;;;;;;20.00;92.00;;;;;;5097124;28;20282;-58
2023/05/08 02:07:57;;;;;;;;;;;20.00;91.90;;;;;;5096849;28;19923;-58
2023/05/08 02:10:23;;;;;;;;;;;20.00;91.90;;;;;;5079259;28;19915;-58
2023/05/08 02:12:49;;;;;;;;;;;20.00;91.90;;;;;;5097126;28;19908;-58
2023/05/08 02:15:16;;;;;;;;;;;20.00;91.90;;;;;;5097305;28;19909;-58
2023/05/08 02:17:43;;;;;;;;;;;20.00;91.90;;;;;;5095296;28;19919;-58
2023/05/08 02:20:13;;;;;;;;;;;20.00;91.90;;;;;;5095084;28;19938;-58
2023/05/08 02:22:40;;;;;;;;;;;20.00;91.90;;;;;;5093360;28;19919;-58
2023/05/08 02:25:06;;;;;;;;;;;20.00;92.00;;;;;;5096074;28;19939;-58
2023/05/08 02:27:32;;;;;;;;;;;20.00;91.90;;;;;;5096018;28;20358;-58
2023/05/08 02:29:59;;;;;;;;;;;20.00;91.90;;;;;;5097021;28;20355;-58
2023/05/08 02:32:25;;;;;;;;;;;20.00;91.90;;;;;;5078792;28;19912;-58
2023/05/08 02:34:51;;;;;;;;;;;20.00;91.90;;;;;;5096894;28;19908;-58
2023/05/08 02:37:18;;;;;;;;;;;20.00;92.00;;;;;;5078756;28;20282;-58
2023/05/08 02:39:44;;;;;;;;;;;20.00;92.00;;;;;;5077809;28;19912;-57
2023/05/08 02:42:10;;;;;;;;;;;20.00;91.20;;;;;;5096712;28;19958;-58
2023/05/08 02:44:36;;;;;;;;;;;19.90;91.10;;;;;;5095667;28;19916;-58
2023/05/08 02:47:09;;;;;;;;;;;20.00;91.40;;;;;;5096366;28;20031;-58
2023/05/08 02:49:37;;;;;;;;;;;20.00;91.70;;;;;;5095711;28;19912;-58
2023/05/08 02:52:04;;;;;;;;;;;20.00;91.80;;;;;;5078411;28;19908;-58
2023/05/08 02:54:34;;;;;;;;;;;20.00;91.80;;;;;;5096208;28;19919;-57
2023/05/08 02:57:11;;;;;;;;;;;19.90;91.80;;;;;;5096177;28;19982;-58
2023/05/08 02:59:38;;;;;;;;;;;20.00;91.80;;;;;;5094909;28;19913;-58
2023/05/08 03:02:11;;;;;;;;;;;20.00;91.80;;;;;;5096444;28;19923;-58
2023/05/08 03:04:40;;;;;;;;;;;20.00;91.90;;;;;;5095919;28;20382;-58
2023/05/08 03:07:06;;;;;;;;;;;20.00;91.80;;;;;;5095966;28;19919;-58
2023/05/08 03:09:40;;;;;;;;;;;20.00;91.80;;;;;;5094650;28;19912;-58
2023/05/08 03:12:09;;;;;;;;;;;20.00;91.80;;;;;;5095199;28;19957;-58
2023/05/08 03:14:40;;;;;;;;;;;20.00;91.90;;;;;;5096033;28;19916;-58
2023/05/08 03:17:07;;;;;;;;;;;20.00;91.90;;;;;;5094536;28;19908;-58
2023/05/08 03:19:34;;;;;;;;;;;20.00;91.80;;;;;;5095492;28;20016;-58
2023/05/08 03:22:00;;;;;;;;;;;20.00;91.80;;;;;;5095982;28;20045;-58
2023/05/08 03:24:27;;;;;;;;;;;19.90;91.80;;;;;;5095749;28;20019;-58
2023/05/08 03:26:54;;;;;;;;;;;20.00;91.80;;;;;;5095855;28;19912;-58
2023/05/08 03:29:20;;;;;;;;;;;20.00;91.70;;;;;;5095012;28;20363;-58
2023/05/08 03:31:46;;;;;;;;;;;19.90;91.60;;;;;;5096066;28;19915;-59
2023/05/08 03:34:12;;;;;;;;;;;20.00;91.60;;;;;;5095558;28;19908;-57
2023/05/08 03:36:38;;;;;;;;;;;20.00;91.60;;;;;;5095291;28;19990;-58
2023/05/08 03:39:04;;;;;;;;;;;20.00;91.70;;;;;;5094933;28;19989;-58
2023/05/08 03:41:29;;;;;;;;;;;19.90;91.60;;;;;;5095084;28;19969;-58
2023/05/08 03:43:55;;;;;;;;;;;20.00;91.60;;;;;;5095282;28;19912;-58
2023/05/08 03:46:21;;;;;;;;;;;20.00;91.50;;;;;;5077343;28;19912;-58
2023/05/08 03:48:48;;;;;;;;;;;19.90;91.50;;;;;;5094638;28;20011;-58
2023/05/08 03:51:14;;;;;;;;;;;19.90;91.40;;;;;;5095633;28;20377;-58
2023/05/08 03:53:40;;;;;;;;;;;19.90;91.40;;;;;;5095003;28;19962;-58
2023/05/08 03:56:05;;;;;;;;;;;19.90;91.40;;;;;;5095090;28;19908;-58
2023/05/08 03:58:47;;;;;;;;;;;20.00;91.50;;;;;;5094205;28;19915;-58
2023/05/08 04:01:13;;;;;;;;;;;20.00;91.60;;;;;;5095244;28;20003;-58
2023/05/08 04:03:44;;;;;;;;;;;19.90;91.60;;;;;;5094799;28;20342;-58
2023/05/08 04:06:13;;;;;;;;;;;20.00;91.70;;;;;;5095067;28;19920;-58
2023/05/08 04:08:41;;;;;;;;;;;20.00;91.80;;;;;;5095091;28;19914;-58
2023/05/08 04:11:25;;;;;;;;;;;20.00;91.70;;;;;;5094220;28;20073;-58
2023/05/08 04:13:54;;;;;;;;;;;20.00;91.70;;;;;;5094963;28;19908;-58
2023/05/08 04:16:24;;;;;;;;;;;19.90;91.80;;;;;;5094541;28;20385;-58
2023/05/08 04:18:53;;;;;;;;;;;20.00;91.80;;;;;;5094461;28;20278;-58
2023/05/08 04:21:21;;;;;;;;;;;20.00;91.80;;;;;;5094892;28;19908;-58
2023/05/08 04:23:48;;;;;;;;;;;20.00;91.80;;;;;;5094377;28;19908;-58
2023/05/08 04:26:15;;;;;;;;;;;20.00;91.80;;;;;;5095027;28;19912;-58
2023/05/08 04:28:41;;;;;;;;;;;20.00;91.70;;;;;;5093904;28;19916;-58
2023/05/08 04:31:07;;;;;;;;;;;20.00;91.60;;;;;;5094595;28;19908;-58
2023/05/08 04:33:33;;;;;;;;;;;19.90;91.60;;;;;;5094154;28;19909;-58
2023/05/08 04:36:00;;;;;;;;;;;20.00;91.50;;;;;;5094248;28;19908;-58
2023/05/08 04:38:26;;;;;;;;;;;20.00;91.50;;;;;;5093432;28;20481;-58
2023/05/08 04:40:51;;;;;;;;;;;20.00;91.40;;;;;;5092614;28;20003;-58
2023/05/08 04:43:17;;;;;;;;;;;20.00;91.40;;;;;;5093066;28;19920;-58
2023/05/08 04:45:42;;;;;;;;;;;20.00;91.40;;;;;;5093170;28;19916;-58
2023/05/08 04:48:08;;;;;;;;;;;20.00;91.40;;;;;;5093250;28;19921;-58
2023/05/08 04:50:33;;;;;;;;;;;19.90;91.30;;;;;;5092680;28;19912;-58
2023/05/08 04:52:59;;;;;;;;;;;20.00;91.30;;;;;;5092313;28;20022;-57
2023/05/08 04:55:24;;;;;;;;;;;19.90;91.30;;;;;;5091321;28;19909;-58
2023/05/08 04:57:50;;;;;;;;;;;19.90;91.30;;;;;;5092188;28;19916;-57
2023/05/08 05:00:15;;;;;;;;;;;19.90;91.30;;;;;;5092128;28;19908;-58
2023/05/08 05:02:41;;;;;;;;;;;20.00;91.40;;;;;;5092095;28;19977;-58
2023/05/08 05:05:06;;;;;;;;;;;19.90;91.30;;;;;;5091398;28;19912;-58
2023/05/08 05:07:32;;;;;;;;;;;19.90;91.30;;;;;;5093299;28;19916;-58
2023/05/08 05:09:58;;;;;;;;;;;19.90;91.30;;;;;;5093777;28;19955;-58
2023/05/08 05:12:23;;;;;;;;;;;19.90;91.30;;;;;;5094032;28;20263;-58
2023/05/08 05:14:49;;;;;;;;;;;19.90;91.30;;;;;;5075983;28;19912;-58
2023/05/08 05:17:14;;;;;;;;;;;19.90;91.40;;;;;;5087348;28;20404;-57
2023/05/08 05:19:40;;;;;;;;;;;19.90;91.40;;;;;;5092477;28;19919;-58
2023/05/08 05:22:07;;;;;;;;;;;19.90;91.30;;;;;;5075762;28;19999;-58
2023/05/08 05:24:34;;;;;;;;;;;19.90;91.30;;;;;;5106456;28;19912;-58
2023/05/08 05:27:01;;;;;;;;;;;20.00;91.40;;;;;;5095773;28;20389;-57
2023/05/08 05:29:27;;;;;;;;;;;19.90;91.30;;;;;;5107818;28;19995;-58
2023/05/08 05:31:52;;;;;;;;;;;19.90;91.30;;;;;;5098626;28;20344;-58
2023/05/08 05:34:18;;;;;;;;;;;20.00;91.40;;;;;;5113695;28;19962;-58
2023/05/08 05:36:43;;;;;;;;;;;20.00;91.40;;;;;;5093496;28;20255;-56
2023/05/08 05:39:09;;;;;;;;;;;19.90;90.90;;;;;;5092819;28;20401;-53
2023/05/08 05:41:35;;;;;;;;;;;19.90;91.20;;;;;;5089654;28;19959;-56
2023/05/08 05:44:00;;;;;;;;;;;20.00;91.50;;;;;;5092709;28;19915;-54
2023/05/08 05:46:31;;;;;;;;;;;20.00;91.90;;;;;;5091321;28;19973;-55
2023/05/08 05:48:59;;;;;;;;;;;20.00;91.70;;;;;;5093436;28;19965;-53
2023/05/08 05:51:26;;;;;;;;;;;20.00;91.70;;;;;;5091314;28;20381;-52
2023/05/08 05:53:52;;;;;;;;;;;20.00;91.70;;;;;;5096121;28;19908;-55
2023/05/08 05:56:17;;;;;;;;;;;20.00;91.70;;;;;;5096184;28;19961;-54
2023/05/08 05:58:44;;;;;;;;;;;20.00;91.70;;;;;;5084046;28;19919;-57
2023/05/08 06:01:10;;;;;;;;;;;20.00;91.70;;;;;;5096667;28;19939;-59
2023/05/08 06:03:36;;;;;;;;;;;20.00;91.70;;;;;;5102071;28;20017;-57
2023/05/08 06:06:02;;;;;;;;;;;20.00;91.70;;;;;;5093147;28;20286;-58
2023/05/08 06:08:28;;;;;;;;;;;20.00;91.70;;;;;;5092491;28;20355;-58
2023/05/08 06:10:53;;;;;;;;;;;20.00;91.70;;;;;;5097600;28;19912;-59
2023/05/08 06:13:19;;;;;;;;;;;20.00;91.70;;;;;;5092299;28;19908;-57
2023/05/08 06:15:45;;;;;;;;;;;20.00;91.70;;;;;;5090399;28;20286;-57
2023/05/08 06:18:10;;;;;;;;;;;20.00;91.70;;;;;;5091828;28;20014;-54
2023/05/08 06:20:39;;;;;;;;;;;20.00;91.70;;;;;;5075523;28;19910;-54
2023/05/08 06:23:04;;;;;;;;;;;20.00;91.70;;;;;;5069753;28;19938;-53
2023/05/08 06:25:30;;;;;;;;;;;20.00;91.70;;;;;;5091492;28;20257;-57
2023/05/08 06:27:56;;;;;;;;;;;20.00;91.70;;;;;;5117111;28;19912;-55
2023/05/08 06:30:21;;;;;;;;;;;20.00;91.90;;;;;;5109721;28;19912;-57
2023/05/08 06:32:47;;;;;;;;;;;20.00;91.70;;;;;;5096443;28;19908;-56
2023/05/08 06:35:14;;;;;;;;;;;20.00;91.70;;;;;;5081900;28;20218;-54
2023/05/08 06:37:39;;;;;;;;;;;20.00;91.70;;;;;;5098842;28;20358;-56
2023/05/08 06:40:05;;;;;;;;;;;20.00;91.70;;;;;;5109589;28;20007;-56
2023/05/08 06:42:31;;;;;;;;;;;20.00;91.70;;;;;;5095441;28;20333;-60
2023/05/08 06:44:57;;;;;;;;;;;20.10;91.70;;;;;;5092043;28;19963;-59
2023/05/08 06:47:22;;;;;;;;;;;20.00;91.70;;;;;;5111135;28;19957;-59
2023/05/08 06:49:48;;;;;;;;;;;20.10;91.80;;;;;;5095110;28;19927;-57
2023/05/08 06:52:13;;;;;;;;;;;20.10;91.80;;;;;;5095507;28;20366;-58
2023/05/08 06:54:40;;;;;;;;;;;20.00;91.70;;;;;;5095725;28;20244;-54
2023/05/08 06:57:06;;;;;;;;;;;20.10;91.80;;;;;;5106627;28;20409;-55
2023/05/08 06:59:32;;;;;;;;;;;20.10;91.80;;;;;;5104867;28;19970;-59
2023/05/08 07:01:58;;;;;;;;;;;20.10;91.80;;;;;;5095942;28;20376;-58
2023/05/08 07:04:23;;;;;;;;;;;20.10;91.80;;;;;;5116213;28;19918;-56
2023/05/08 07:06:48;;;;;;;;;;;20.10;91.80;;;;;;5094436;28;19927;-55
2023/05/08 07:09:15;;;;;;;;;;;20.10;91.80;;;;;;5106941;28;19912;-52
2023/05/08 07:11:41;;;;;;;;;;;20.10;91.80;;;;;;5093792;28;19947;-55
2023/05/08 07:14:06;;;;;;;;;;;20.10;91.80;;;;;;5091165;28;19966;-58
2023/05/08 07:16:32;;;;;;;;;;;20.10;91.80;;;;;;5090825;28;21034;-54
2023/05/08 07:18:57;;;;;;;;;;;20.10;91.80;;;;;;5098926;28;19912;-60
2023/05/08 07:21:23;;;;;;;;;;;20.10;91.80;;;;;;5094461;28;20007;-61
2023/05/08 07:23:50;;;;;;;;;;;20.10;91.80;;;;;;5094406;28;19920;-59
2023/05/08 07:26:16;;;;;;;;;;;20.20;91.80;;;;;;5095405;28;19919;-57
2023/05/08 07:28:41;;;;;;;;;;;20.20;91.80;;;;;;5093892;28;20267;-55
2023/05/08 07:31:07;;;;;;;;;;;20.20;91.80;;;;;;5076126;28;20363;-59
2023/05/08 07:33:33;;;;;;;;;;;20.20;91.80;;;;;;5092138;28;19966;-58
2023/05/08 07:35:59;;;;;;;;;;;20.20;91.80;;;;;;5094632;28;19916;-56
2023/05/08 07:38:24;;;;;;;;;;;20.20;91.80;;;;;;5103470;28;19912;-60
2023/05/08 07:40:52;;;;;;;;;;;20.20;91.90;;;;;;5092807;28;20275;-61
2023/05/08 07:43:17;;;;;;;;;;;20.20;91.90;;;;;;5094828;28;19928;-60
2023/05/08 07:45:42;;;;;;;;;;;20.20;91.90;;;;;;5094723;28;19911;-58
2023/05/08 07:48:08;;;;;;;;;;;20.20;91.90;;;;;;5114028;28;19916;-58
2023/05/08 07:50:33;;;;;;;;;;;20.20;91.90;;;;;;5115730;28;20337;-59
2023/05/08 07:52:59;;;;;;;;;;;20.20;91.90;;;;;;5093561;28;20028;-60
2023/05/08 07:55:24;;;;;;;;;;;20.20;91.90;;;;;;5093511;28;19937;-60
2023/05/08 07:57:50;;;;;;;;;;;20.20;91.90;;;;;;5099566;28;19916;-58
2023/05/08 08:00:15;;;;;;;;;;;20.20;91.90;;;;;;5104109;28;20000;-57
2023/05/08 08:02:42;;;;;;;;;;;20.20;91.90;;;;;;5104308;28;19974;-60
2023/05/08 08:05:08;;;;;;;;;;;20.20;91.90;;;;;;5101483;28;19922;-58
2023/05/08 08:07:33;;;;;;;;;;;20.20;91.90;;;;;;5114043;28;19912;-57
2023/05/08 08:09:59;;;;;;;;;;;20.20;91.90;;;;;;5113892;28;19998;-61
2023/05/08 08:12:25;;;;;;;;;;;20.20;91.90;;;;;;5104401;28;19920;-57
2023/05/08 08:14:51;;;;;;;;;;;20.20;91.90;;;;;;5091658;28;19919;-60
2023/05/08 08:17:16;;;;;;;;;;;20.20;91.90;;;;;;5097032;28;19955;-59
2023/05/08 08:19:42;;;;;;;;;;;20.30;91.90;;;;;;5092484;28;19912;-61
2023/05/08 08:22:07;;;;;;;;;;;20.30;91.80;;;;;;5092762;28;19973;-59
2023/05/08 08:24:33;;;;;;;;;;;20.30;91.90;;;;;;5094703;28;20347;-61
2023/05/08 08:26:58;;;;;;;;;;;20.30;91.90;;;;;;5088642;28;19916;-58
2023/05/08 08:29:24;;;;;;;;;;;20.30;91.90;;;;;;5094674;28;19999;-60
2023/05/08 08:31:50;;;;;;;;;;;20.30;91.90;;;;;;5109224;28;19915;-61
2023/05/08 08:34:15;;;;;;;;;;;20.30;91.80;;;;;;5078124;28;19912;-61
2023/05/08 08:36:41;;;;;;;;;;;20.30;91.80;;;;;;5108354;28;19919;-62
2023/05/08 08:39:06;;;;;;;;;;;20.30;91.80;;;;;;5094851;28;19911;-63
2023/05/08 08:41:32;;;;;;;;;;;20.30;91.80;;;;;;5112591;28;19919;-60
2023/05/08 08:43:58;;;;;;;;;;;20.30;91.80;;;;;;5100845;28;19912;-61
2023/05/08 08:46:24;;;;;;;;;;;20.30;91.80;;;;;;5099543;28;19963;-63
2023/05/08 08:48:52;;;;;;;;;;;20.30;91.80;;;;;;5096944;28;19912;-62
2023/05/08 08:51:23;;;;;;;;;;;20.30;91.90;;;;;;5092462;28;19916;-62
2023/05/08 08:53:53;;;;;;;;;;;20.30;91.90;;;;;;5101988;28;19920;-61
2023/05/08 08:56:20;;;;;;;;;;;20.30;91.90;;;;;;5093864;28;19908;-62
2023/05/08 08:58:49;;;;;;;;;;;20.30;91.90;;;;;;5095828;28;20425;-61
2023/05/08 09:01:16;;;;;;;;;;;20.30;91.90;;;;;;5091473;28;19912;-60
2023/05/08 09:03:42;;;;;;;;;;;20.30;91.90;;;;;;5090590;28;19912;-61
2023/05/08 09:06:08;;;;;;;;;;;20.30;91.90;;;;;;5092175;28;19927;-61
2023/05/08 09:08:33;;;;;;;;;;;20.30;91.90;;;;;;5092296;28;19912;-61
2023/05/08 09:11:00;;;;;;;;;;;20.30;91.90;;;;;;5092996;28;19961;-61
2023/05/08 09:13:25;;;;;;;;;;;20.30;91.90;;;;;;5087640;28;19957;-62
2023/05/08 09:15:51;;;;;;;;;;;20.30;91.90;;;;;;5112289;28;20390;-59
2023/05/08 09:18:18;;;;;;;;;;;20.30;92.10;;;;;;5108187;28;19999;-61
2023/05/08 09:20:43;;;;;;;;;;;20.30;91.90;;;;;;5075808;28;20244;-62
2023/05/08 09:23:09;;;;;;;;;;;20.30;91.90;;;;;;5092027;28;19919;-61
2023/05/08 09:25:41;;;;;;;;;;;20.30;91.90;;;;;;5114184;28;19919;-62
2023/05/08 09:28:14;;;;;;;;;;;20.40;91.90;;;;;;5091983;28;20401;-60
2023/05/08 09:30:47;;;;;;;;;;;20.30;91.90;;;;;;5090299;28;19935;-59
2023/05/08 09:33:12;;;;;;;;;;;20.40;91.90;;;;;;5091404;28;19919;-59
2023/05/08 09:35:38;;;;;;;;;;;20.40;91.90;;;;;;5090104;28;19912;-62
2023/05/08 09:38:04;;;;;;;;;;;20.40;91.80;;;;;;5093575;28;19908;-61
2023/05/08 09:40:29;;;;;;;;;;;20.40;91.90;;;;;;5090552;28;19915;-61
2023/05/08 09:42:55;;;;;;;;;;;20.40;91.90;;;;;;5089533;28;19969;-61
2023/05/08 09:45:27;;;;;;;;;;;20.40;91.90;;;;;;5090008;28;19966;-58
2023/05/08 09:47:52;;;;;;;;;;;20.30;91.90;;;;;;5073608;28;19940;-57
2023/05/08 09:50:18;;;;;;;;;;;20.40;91.90;;;;;;5082078;28;20377;-60
2023/05/08 09:52:47;;;;;;;;;;;20.40;91.90;;;;;;5112031;28;19907;-62
2023/05/08 09:55:13;;;;;;;;;;;20.40;91.90;;;;;;5101624;28;19904;-60
2023/05/08 09:57:39;;;;;;;;;;;20.40;91.90;;;;;;5096806;28;19908;-58
2023/05/08 10:00:06;;;;;;;;;;;20.40;91.90;;;;;;5096466;28;20002;-56
2023/05/08 10:02:31;;;;;;;;;;;20.40;91.90;;;;;;5106094;28;19904;-56
2023/05/08 10:04:57;;;;;;;;;;;20.40;91.90;;;;;;5102672;28;20355;-57
2023/05/08 10:07:32;;;;;;;;;;;20.40;91.90;;;;;;5107487;28;19973;-54
2023/05/08 10:10:02;;;;;;;;;;;20.40;91.90;;;;;;5096510;28;19904;-57
2023/05/08 10:12:28;;;;;;;;;;;20.40;91.90;;;;;;5094165;28;19961;-59
2023/05/08 10:14:54;;;;;;;;;;;20.40;91.90;;;;;;5097080;28;19904;-58
2023/05/08 10:17:32;;;;;;;;;;;20.40;91.90;;;;;;5075696;28;19904;-54
2023/05/08 10:19:59;;;;;;;;;;;20.40;91.90;;;;;;5078958;28;19961;-57
2023/05/08 10:22:25;;;;;;;;;;;20.40;91.90;;;;;;5103918;28;19908;-55
2023/05/08 10:24:55;;;;;;;;;;;20.40;91.90;;;;;;5096749;28;19916;-58
2023/05/08 10:27:29;;;;;;;;;;;20.40;91.90;;;;;;5106013;28;19955;-58
2023/05/08 10:29:55;;;;;;;;;;;20.40;91.90;;;;;;5100859;28;19918;-57
2023/05/08 10:32:22;;;;;;;;;;;20.40;91.90;;;;;;5095560;28;20392;-58
2023/05/08 10:35:02;;;;;;;;;;;20.40;91.90;;;;;;5097597;28;19915;-56
2023/05/08 10:37:28;;;;;;;;;;;20.50;91.90;;;;;;5109845;28;20350;-55
2023/05/08 10:39:54;;;;;;;;;;;20.40;91.90;;;;;;5100325;28;19950;-58
2023/05/08 10:42:20;;;;;;;;;;;20.50;91.90;;;;;;5099611;28;19920;-58
2023/05/08 10:44:46;;;;;;;;;;;20.40;91.90;;;;;;5096114;28;19966;-61
2023/05/08 10:47:20;;;;;;;;;;;20.40;91.90;;;;;;5076475;28;19920;-56
2023/05/08 10:50:01;;;;;;;;;;;20.40;91.90;;;;;;5096507;28;19916;-59
2023/05/08 10:52:31;;;;;;;;;;;20.40;91.90;;;;;;5102587;28;19919;-62
2023/05/08 10:54:57;;;;;;;;;;;20.50;91.90;;;;;;5107415;28;19957;-60
2023/05/08 10:57:23;;;;;;;;;;;20.40;91.90;;;;;;5105527;28;19912;-58
2023/05/08 10:59:49;;;;;;;;;;;20.50;91.90;;;;;;5094730;28;20343;-56
2023/05/08 11:02:15;;;;;;;;;;;20.50;92.00;;;;;;5104141;28;19917;-58
2023/05/08 11:04:40;;;;;;;;;;;20.50;91.90;;;;;;5092365;28;19920;-59
2023/05/08 11:07:06;;;;;;;;;;;20.50;91.90;;;;;;5095756;28;19918;-57
2023/05/08 11:09:37;;;;;;;;;;;20.50;91.90;;;;;;5103975;28;19912;-59
2023/05/08 11:12:06;;;;;;;;;;;20.50;91.90;;;;;;5094642;28;19995;-60
2023/05/08 11:14:33;;;;;;;;;;;20.50;91.90;;;;;;5106541;28;19937;-58
2023/05/08 11:17:01;;;;;;;;;;;20.50;92.00;;;;;;5116304;28;19908;-58
2023/05/08 11:19:27;;;;;;;;;;;20.50;92.00;;;;;;5108816;28;19943;-61
2023/05/08 11:22:11;;;;;;;;;;;20.50;92.00;;;;;;5106527;28;19912;-62
2023/05/08 11:24:37;;;;;;;;;;;20.50;92.00;;;;;;5095424;28;20316;-56
2023/05/08 11:27:03;;;;;;;;;;;20.50;92.00;;;;;;5102677;28;19916;-57
2023/05/08 11:29:28;;;;;;;;;;;20.50;92.00;;;;;;5085653;28;20007;-60
2023/05/08 11:31:54;;;;;;;;;;;20.50;92.00;;;;;;5096706;28;20255;-60
2023/05/08 11:34:38;;;;;;;;;;;20.50;92.00;;;;;;5095533;28;19926;-62
2023/05/08 11:37:07;;;;;;;;;;;20.50;92.00;;;;;;5095467;28;19908;-61
2023/05/08 11:39:33;;;;;;;;;;;20.50;92.00;;;;;;5094760;28;19908;-60
2023/05/08 11:42:17;;;;;;;;;;;20.50;92.00;;;;;;5095114;28;20302;-59
2023/05/08 11:44:43;;;;;;;;;;;20.50;92.00;;;;;;5094955;28;19955;-60
2023/05/08 11:47:09;;;;;;;;;;;20.50;92.00;;;;;;5094742;28;20317;-56
2023/05/08 11:49:35;;;;;;;;;;;20.50;92.00;;;;;;5108379;28;20263;-58
2023/05/08 11:52:03;;;;;;;;;;;20.60;92.00;;;;;;5091189;28;19919;-55
2023/05/08 11:54:29;;;;;;;;;;;20.50;92.00;;;;;;5085699;28;19987;-56
2023/05/08 11:56:55;;;;;;;;;;;20.60;92.10;;;;;;5092913;28;19912;-59
2023/05/08 11:59:20;;;;;;;;;;;20.50;92.00;;;;;;5094467;28;19922;-59
2023/05/08 12:01:49;;;;;;;;;;;20.50;92.00;;;;;;5101646;28;19911;-60
2023/05/08 12:04:14;;;;;;;;;;;20.50;92.00;;;;;;5109033;28;19935;-57
2023/05/08 12:06:40;;;;;;;;;;;20.50;92.00;;;;;;5107919;28;19920;-56
2023/05/08 12:09:09;;;;;;;;;;;20.50;92.10;;;;;;5094627;28;19915;-61
2023/05/08 12:11:35;;;;;;;;;;;20.50;92.10;;;;;;5094583;28;19918;-58
2023/05/08 12:14:00;;;;;;;;;;;20.50;92.10;;;;;;5090745;28;19916;-62
2023/05/08 12:16:26;;;;;;;;;;;20.50;92.10;;;;;;5093637;28;19919;-60
2023/05/08 12:18:51;;;;;;;;;;;20.50;91.00;;;;;;5100659;28;19912;-62
2023/05/08 12:21:17;;;;;;;;;;;20.50;90.60;;;;;;5099774;28;20041;-62
2023/05/08 12:23:43;;;;;;;;;;;20.50;91.40;;;;;;5094375;28;19908;-62
2023/05/08 12:26:09;;;;;;;;;;;20.50;91.80;;;;;;5092866;28;20016;-62
2023/05/08 12:28:34;;;;;;;;;;;20.50;91.90;;;;;;5094206;28;19912;-59
2023/05/08 12:31:00;;;;;;;;;;;20.50;91.80;;;;;;5094335;28;20005;-59
2023/05/08 12:33:27;;;;;;;;;;;20.50;91.80;;;;;;5076263;28;19943;-59
2023/05/08 12:35:53;;;;;;;;;;;20.50;91.80;;;;;;5093327;28;19935;-59
2023/05/08 12:38:24;;;;;;;;;;;20.50;91.80;;;;;;5093951;28;20313;-59
2023/05/08 12:40:51;;;;;;;;;;;20.50;91.80;;;;;;5093659;28;20357;-59
2023/05/08 12:43:17;;;;;;;;;;;20.50;91.80;;;;;;5093249;28;20295;-59
2023/05/08 12:45:43;;;;;;;;;;;20.50;91.80;;;;;;5092646;28;19920;-60
2023/05/08 12:48:11;;;;;;;;;;;20.50;91.70;;;;;;5092783;28;20361;-61
2023/05/08 12:50:38;;;;;;;;;;;20.50;91.80;;;;;;5093817;28;20351;-61
2023/05/08 12:53:05;;;;;;;;;;;20.50;91.70;;;;;;5093820;28;19953;-61
2023/05/08 12:55:32;;;;;;;;;;;20.50;91.70;;;;;;5093221;28;19919;-59
2023/05/08 12:57:59;;;;;;;;;;;20.50;91.70;;;;;;5093879;28;19954;-59
2023/05/08 13:00:24;;;;;;;;;;;20.50;91.70;;;;;;5093478;28;20002;-59
2023/05/08 13:02:51;;;;;;;;;;;20.50;91.70;;;;;;5090809;28;20026;-59
2023/05/08 13:05:20;;;;;;;;;;;20.50;91.70;;;;;;5100347;28;19952;-58
2023/05/08 13:07:46;;;;;;;;;;;20.50;91.70;;;;;;5092050;28;19923;-60
2023/05/08 13:10:11;;;;;;;;;;;20.50;91.70;;;;;;5094363;28;19912;-60
2023/05/08 13:12:37;;;;;;;;;;;20.40;91.70;;;;;;5101720;28;20366;-57
2023/05/08 13:15:03;;;;;;;;;;;20.50;91.70;;;;;;5094333;28;19999;-59
2023/05/08 13:17:29;;;;;;;;;;;20.50;91.60;;;;;;5091633;28;19912;-59
2023/05/08 13:19:54;;;;;;;;;;;20.50;91.60;;;;;;5093677;28;20373;-58
2023/05/08 13:22:21;;;;;;;;;;;20.50;91.60;;;;;;5103118;28;19915;-61
2023/05/08 13:24:47;;;;;;;;;;;20.50;91.70;;;;;;5113936;28;19911;-62
2023/05/08 13:27:13;;;;;;;;;;;20.50;91.70;;;;;;5094336;28;20380;-62
2023/05/08 13:29:39;;;;;;;;;;;20.50;91.70;;;;;;5092727;28;19918;-61
2023/05/08 13:32:04;;;;;;;;;;;20.50;91.70;;;;;;5094912;28;19912;-61
2023/05/08 13:34:30;;;;;;;;;;;20.50;91.70;;;;;;5100272;28;20335;-61
2023/05/08 13:36:56;;;;;;;;;;;20.50;91.70;;;;;;5113643;28;19912;-62
2023/05/08 13:39:21;;;;;;;;;;;20.50;91.70;;;;;;5097444;28;19914;-60
2023/05/08 13:41:46;;;;;;;;;;;20.50;91.70;;;;;;5096034;28;19985;-62
2023/05/08 13:44:12;;;;;;;;;;;20.50;91.80;;;;;;5102055;28;19912;-62
2023/05/08 13:46:37;;;;;;;;;;;20.50;91.80;;;;;;5098670;28;20272;-60
2023/05/08 13:49:03;;;;;;;;;;;20.50;91.80;;;;;;5112512;28;19916;-62
2023/05/08 13:51:28;;;;;;;;;;;20.50;91.80;;;;;;5117643;28;19932;-61
2023/05/08 13:53:54;;;;;;;;;;;20.50;91.80;;;;;;5096402;28;19912;-57
2023/05/08 13:56:20;;;;;;;;;;;20.50;91.80;;;;;;5103381;28;19916;-61
2023/05/08 13:58:46;;;;;;;;;;;20.50;91.80;;;;;;5112430;28;19911;-60
2023/05/08 14:01:11;;;;;;;;;;;20.50;91.90;;;;;;5117658;28;19908;-61
2023/05/08 14:03:36;;;;;;;;;;;20.50;91.90;;;;;;5089463;28;19912;-60
2023/05/08 14:06:03;;;;;;;;;;;20.50;91.90;;;;;;5097357;28;20260;-61
2023/05/08 14:08:29;;;;;;;;;;;20.50;91.90;;;;;;5093532;28;20008;-63
2023/05/08 14:10:54;;;;;;;;;;;20.50;91.90;;;;;;5096238;28;19920;-60
2023/05/08 14:13:20;;;;;;;;;;;20.50;91.90;;;;;;5095098;28;19920;-61